Time,TemperatureF,DewpointF,PressureIn,WindDirection,WindDirectionDegrees,WindSpeedMPH,WindSpeedGustMPH,Humidity,HourlyPrecipIn,Conditions,Clouds,dailyrainin,SoftwareType,DateUTC
2013-02-20 00:04:00,64.9,62.8,29.96,West,278,0.0,0.0,93,0.00,,,0.00,Wunderground v.1.15,2013-02-19 13:04:00,
2013-02-20 00:09:00,64.7,62.6,29.96,West,278,0.0,0.0,93,0.00,,,0.00,Wunderground v.1.15,2013-02-19 13:09:00,
2013-02-20 00:15:00,64.7,62.6,29.96,West,278,0.0,0.0,93,0.00,,,0.00,Wunderground v.1.15,2013-02-19 13:15:00,
2013-02-20 00:20:00,64.8,62.7,29.96,North,-999,0.0,0.0,93,0.00,,,-99.99,WeatherLink 5.9.3,2013-02-19 13:20:00,
2013-02-20 00:26:00,64.7,62.6,29.96,West,279,0.0,0.0,93,0.00,,,0.00,Wunderground v.1.15,2013-02-19 13:26:00,
2013-02-20 00:31:00,64.7,62.9,29.96,West,278,0.0,0.0,94,0.00,,,0.00,Wunderground v.1.15,2013-02-19 13:31:00,
2013-02-20 00:37:00,64.5,62.7,29.96,West,278,0.0,0.0,94,0.00,,,0.00,Wunderground v.1.15,2013-02-19 13:37:00,
2013-02-20 00:42:00,64.3,62.2,29.96,West,278,0.0,0.0,93,0.00,,,0.00,Wunderground v.1.15,2013-02-19 13:42:00,
2013-02-20 00:48:00,64.2,62.1,29.96,West,278,0.0,0.0,93,0.00,,,0.00,Wunderground v.1.15,2013-02-19 13:48:00,
2013-02-20 00:53:00,64.2,62.4,29.96,West,278,0.0,0.0,94,0.00,,,0.00,Wunderground v.1.15,2013-02-19 13:53:00,
2013-02-20 00:59:00,64.3,62.5,29.96,West,278,0.0,0.0,94,0.00,,,0.00,Wunderground v.1.15,2013-02-19 13:59:00,
2013-02-20 01:04:00,64.3,62.5,29.96,West,278,0.0,0.0,94,0.00,,,0.00,Wunderground v.1.15,2013-02-19 14:04:00,
2013-02-20 01:10:00,64.3,62.5,29.96,North,-999,0.0,0.0,94,0.00,,,-99.99,WeatherLink 5.9.3,2013-02-19 14:10:00,
2013-02-20 01:16:00,64.2,62.4,29.95,West,278,0.0,0.0,94,0.00,,,0.00,Wunderground v.1.15,2013-02-19 14:16:00,
2013-02-20 01:22:00,64.1,62.3,29.95,West,278,0.0,0.0,94,0.00,,,0.00,Wunderground v.1.15,2013-02-19 14:22:00,
2013-02-20 01:27:00,64.2,62.4,29.95,West,277,0.0,0.0,94,0.00,,,0.00,Wunderground v.1.15,2013-02-19 14:27:00,
2013-02-20 01:33:00,64.1,62.3,29.95,West,278,0.0,0.0,94,0.00,,,0.00,Wunderground v.1.15,2013-02-19 14:33:00,
2013-02-20 01:38:00,64.0,62.2,29.95,West,278,0.0,0.0,94,0.00,,,0.00,Wunderground v.1.15,2013-02-19 14:38:00,
2013-02-20 01:44:00,63.9,62.4,29.95,West,277,0.0,0.0,95,0.00,,,0.00,Wunderground v.1.15,2013-02-19 14:44:00,
2013-02-20 01:49:00,63.8,62.0,29.95,West,277,0.0,0.0,94,0.00,,,0.00,Wunderground v.1.15,2013-02-19 14:49:00,
2013-02-20 01:54:00,63.6,61.8,29.95,West,277,0.0,0.0,94,0.00,,,0.00,Wunderground v.1.15,2013-02-19 14:54:00,
2013-02-20 02:00:00,63.7,61.9,29.95,North,-999,0.0,0.0,94,0.00,,,-99.99,WeatherLink 5.9.3,2013-02-19 15:00:00,
2013-02-20 02:05:00,63.5,62.0,29.94,West,278,0.0,0.0,95,0.00,,,0.00,Wunderground v.1.15,2013-02-19 15:05:00,
2013-02-20 02:10:00,63.5,62.0,29.95,West,278,0.0,0.0,95,0.00,,,0.00,Wunderground v.1.15,2013-02-19 15:10:00,
2013-02-20 02:15:00,63.5,62.0,29.95,West,278,0.0,0.0,95,0.00,,,0.00,Wunderground v.1.15,2013-02-19 15:15:00,
2013-02-20 02:20:00,63.6,62.1,29.94,West,278,0.0,0.0,95,0.00,,,0.00,Wunderground v.1.15,2013-02-19 15:20:00,
2013-02-20 02:25:00,63.7,62.2,29.94,West,278,0.0,1.0,95,0.00,,,0.00,Wunderground v.1.15,2013-02-19 15:25:00,
2013-02-20 02:30:00,63.7,62.2,29.94,West,278,0.0,0.0,95,0.00,,,0.00,Wunderground v.1.15,2013-02-19 15:30:00,
2013-02-20 02:35:00,63.6,62.1,29.94,West,278,0.0,0.0,95,0.00,,,0.00,Wunderground v.1.15,2013-02-19 15:35:00,
2013-02-20 02:40:00,63.6,62.1,29.94,West,278,0.0,0.0,95,0.00,,,0.00,Wunderground v.1.15,2013-02-19 15:40:00,
2013-02-20 02:45:00,63.6,62.1,29.94,West,278,0.0,0.0,95,0.00,,,0.00,Wunderground v.1.15,2013-02-19 15:45:00,
2013-02-20 02:50:00,63.6,62.1,29.94,West,278,0.0,0.0,95,0.00,,,0.00,Wunderground v.1.15,2013-02-19 15:50:00,
2013-02-20 02:55:00,63.5,62.0,29.94,West,278,0.0,0.0,95,0.00,,,0.00,Wunderground v.1.15,2013-02-19 15:55:00,
2013-02-20 03:01:00,63.6,62.1,29.94,North,-999,0.0,0.0,95,0.00,,,-99.99,WeatherLink 5.9.3,2013-02-19 16:01:00,
2013-02-20 03:06:00,63.3,61.8,29.94,West,278,0.0,0.0,95,0.00,,,0.00,Wunderground v.1.15,2013-02-19 16:06:00,
2013-02-20 03:11:00,63.5,62.0,29.94,North,-999,0.0,0.0,95,0.00,,,-99.99,WeatherLink 5.9.3,2013-02-19 16:11:00,
2013-02-20 03:16:00,63.2,61.7,29.94,West,278,0.0,0.0,95,0.00,,,0.00,Wunderground v.1.15,2013-02-19 16:16:00,
2013-02-20 03:21:00,63.2,61.7,29.93,West,279,0.0,0.0,95,0.00,,,0.00,Wunderground v.1.15,2013-02-19 16:21:00,
2013-02-20 03:26:00,63.1,61.6,29.94,West,278,0.0,0.0,95,0.00,,,0.00,Wunderground v.1.15,2013-02-19 16:26:00,
2013-02-20 03:31:00,63.1,61.6,29.93,West,278,0.0,0.0,95,0.00,,,0.00,Wunderground v.1.15,2013-02-19 16:31:00,
2013-02-20 03:36:00,63.2,62.0,29.93,West,278,0.0,0.0,96,0.00,,,0.00,Wunderground v.1.15,2013-02-19 16:36:00,
2013-02-20 03:41:00,63.2,62.0,29.93,North,-999,0.0,0.0,96,0.00,,,-99.99,WeatherLink 5.9.3,2013-02-19 16:41:00,
2013-02-20 03:46:00,63.2,62.0,29.93,West,278,0.0,1.0,96,0.00,,,0.00,Wunderground v.1.15,2013-02-19 16:46:00,
2013-02-20 03:51:00,63.3,62.1,29.93,West,278,0.0,0.0,96,0.00,,,0.00,Wunderground v.1.15,2013-02-19 16:51:00,
2013-02-20 03:56:00,63.3,62.1,29.93,SSW,198,0.0,1.0,96,0.00,,,0.00,Wunderground v.1.15,2013-02-19 16:56:00,
2013-02-20 04:01:00,63.4,62.2,29.93,SSW,198,0.0,0.0,96,0.00,,,0.00,Wunderground v.1.15,2013-02-19 17:01:00,
2013-02-20 04:06:00,63.4,62.2,29.93,SSW,198,0.0,0.0,96,0.00,,,0.00,Wunderground v.1.15,2013-02-19 17:06:00,
2013-02-20 04:11:00,63.4,62.2,29.93,SSW,198,0.0,0.0,96,0.00,,,0.00,Wunderground v.1.15,2013-02-19 17:11:00,
2013-02-20 04:16:00,63.4,62.2,29.93,SSW,197,0.0,1.0,96,0.00,,,0.00,Wunderground v.1.15,2013-02-19 17:16:00,
2013-02-20 04:21:00,63.3,62.1,29.93,SSW,197,0.0,0.0,96,0.00,,,0.00,Wunderground v.1.15,2013-02-19 17:21:00,
2013-02-20 04:26:00,63.1,61.6,29.93,SSW,198,0.0,0.0,95,0.00,,,0.00,Wunderground v.1.15,2013-02-19 17:26:00,
2013-02-20 04:31:00,63.2,62.0,29.93,SSW,197,0.0,0.0,96,0.00,,,0.00,Wunderground v.1.15,2013-02-19 17:31:00,
2013-02-20 04:36:00,63.1,61.9,29.93,SSW,198,0.0,0.0,96,0.00,,,0.00,Wunderground v.1.15,2013-02-19 17:36:00,
2013-02-20 04:41:00,63.2,62.0,29.93,SSW,197,0.0,0.0,96,0.00,,,0.00,Wunderground v.1.15,2013-02-19 17:41:00,
2013-02-20 04:46:00,63.2,62.0,29.93,SSW,197,0.0,1.0,96,0.00,,,0.00,Wunderground v.1.15,2013-02-19 17:46:00,
2013-02-20 04:51:00,63.2,62.0,29.93,SSW,198,0.0,0.0,96,0.00,,,0.00,Wunderground v.1.15,2013-02-19 17:51:00,
2013-02-20 04:56:00,63.2,62.0,29.93,SSW,198,0.0,0.0,96,0.00,,,0.00,Wunderground v.1.15,2013-02-19 17:56:00,
2013-02-20 05:01:00,63.2,62.0,29.93,North,-999,0.0,0.0,96,0.00,,,-99.99,WeatherLink 5.9.3,2013-02-19 18:01:00,
2013-02-20 05:06:00,63.2,62.0,29.93,SSW,197,0.0,0.0,96,0.00,,,0.00,Wunderground v.1.15,2013-02-19 18:06:00,
2013-02-20 05:11:00,63.2,62.0,29.93,SSW,198,0.0,1.0,96,0.00,,,0.00,Wunderground v.1.15,2013-02-19 18:11:00,
2013-02-20 05:16:00,63.1,61.9,29.93,SSW,197,0.0,1.0,96,0.00,,,0.00,Wunderground v.1.15,2013-02-19 18:16:00,
2013-02-20 05:21:00,63.0,61.8,29.93,SSW,197,0.0,0.0,96,0.00,,,0.00,Wunderground v.1.15,2013-02-19 18:21:00,
2013-02-20 05:26:00,63.0,61.8,29.93,SSW,197,0.0,0.0,96,0.00,,,0.00,Wunderground v.1.15,2013-02-19 18:26:00,
2013-02-20 05:31:00,63.1,61.9,29.94,SSW,198,0.0,0.0,96,0.00,,,0.00,Wunderground v.1.15,2013-02-19 18:31:00,
2013-02-20 05:36:00,63.1,61.9,29.93,SSW,197,0.0,0.0,96,0.00,,,0.00,Wunderground v.1.15,2013-02-19 18:36:00,
2013-02-20 05:41:00,63.1,61.9,29.94,SSW,198,0.0,0.0,96,0.00,,,0.00,Wunderground v.1.15,2013-02-19 18:41:00,
2013-02-20 05:46:00,63.1,61.9,29.94,SSW,197,0.0,0.0,96,0.00,,,0.00,Wunderground v.1.15,2013-02-19 18:46:00,
2013-02-20 05:51:00,63.0,61.8,29.94,SW,226,0.0,0.0,96,0.00,,,0.00,Wunderground v.1.15,2013-02-19 18:51:00,
2013-02-20 05:56:00,63.1,61.9,29.94,SW,227,0.0,0.0,96,0.00,,,0.00,Wunderground v.1.15,2013-02-19 18:56:00,
2013-02-20 06:01:00,63.2,62.0,29.94,SW,226,0.0,0.0,96,0.00,,,0.00,Wunderground v.1.15,2013-02-19 19:01:00,
2013-02-20 06:06:00,63.3,62.1,29.94,West,269,1.0,1.0,96,0.00,,,0.00,Wunderground v.1.15,2013-02-19 19:06:00,
2013-02-20 06:11:00,63.4,62.2,29.94,WSW,257,0.0,0.0,96,0.00,,,0.00,Wunderground v.1.15,2013-02-19 19:11:00,
2013-02-20 06:16:00,63.3,62.1,29.94,WSW,257,0.0,0.0,96,0.00,,,0.00,Wunderground v.1.15,2013-02-19 19:16:00,
2013-02-20 06:21:00,63.2,62.0,29.94,WSW,257,0.0,0.0,96,0.00,,,0.00,Wunderground v.1.15,2013-02-19 19:21:00,
2013-02-20 06:26:00,63.1,61.9,29.95,WSW,252,0.0,0.0,96,0.00,,,0.00,Wunderground v.1.15,2013-02-19 19:26:00,
2013-02-20 06:31:00,63.1,61.9,29.95,WSW,252,0.0,0.0,96,0.00,,,0.00,Wunderground v.1.15,2013-02-19 19:31:00,
2013-02-20 06:36:00,63.0,61.8,29.95,WSW,252,0.0,0.0,96,0.00,,,0.00,Wunderground v.1.15,2013-02-19 19:36:00,
2013-02-20 06:41:00,62.8,61.6,29.95,WSW,252,0.0,0.0,96,0.00,,,0.00,Wunderground v.1.15,2013-02-19 19:41:00,
2013-02-20 06:46:00,62.9,61.7,29.95,WSW,252,0.0,0.0,96,0.00,,,0.00,Wunderground v.1.15,2013-02-19 19:46:00,
2013-02-20 06:51:00,63.0,61.8,29.95,WSW,252,0.0,0.0,96,0.00,,,0.00,Wunderground v.1.15,2013-02-19 19:51:00,
2013-02-20 06:56:00,63.2,62.0,29.96,WSW,252,0.0,0.0,96,0.00,,,0.00,Wunderground v.1.15,2013-02-19 19:56:00,
2013-02-20 07:01:00,63.5,62.6,29.96,WSW,252,0.0,0.0,97,0.00,,,0.00,Wunderground v.1.15,2013-02-19 20:01:00,
2013-02-20 07:06:00,64.0,63.1,29.96,WSW,252,0.0,1.0,97,0.00,,,0.00,Wunderground v.1.15,2013-02-19 20:06:00,
2013-02-20 07:11:00,64.5,63.6,29.96,WSW,252,0.0,0.0,97,0.00,,,0.00,Wunderground v.1.15,2013-02-19 20:11:00,
2013-02-20 07:16:00,64.9,64.0,29.96,WSW,251,0.0,1.0,97,0.00,,,0.00,Wunderground v.1.15,2013-02-19 20:16:00,
2013-02-20 07:21:00,65.4,64.5,29.96,WSW,250,0.0,0.0,97,0.00,,,0.00,Wunderground v.1.15,2013-02-19 20:21:00,
2013-02-20 07:26:00,65.9,65.0,29.96,WSW,250,0.0,0.0,97,0.00,,,0.00,Wunderground v.1.15,2013-02-19 20:26:00,
2013-02-20 07:31:00,66.1,64.9,29.96,South,191,0.0,1.0,96,0.00,,,0.00,Wunderground v.1.15,2013-02-19 20:31:00,
2013-02-20 07:36:00,66.8,65.9,29.97,South,191,0.0,1.0,97,0.00,,,0.00,Wunderground v.1.15,2013-02-19 20:36:00,
2013-02-20 07:41:00,67.1,65.6,29.97,SSW,204,0.0,1.0,95,0.00,,,0.00,Wunderground v.1.15,2013-02-19 20:41:00,
2013-02-20 07:46:00,67.3,65.5,29.97,SSW,193,1.0,2.0,94,0.00,,,0.00,Wunderground v.1.15,2013-02-19 20:46:00,
2013-02-20 07:51:00,67.5,65.4,29.97,SSE,154,1.0,2.0,93,0.00,,,0.00,Wunderground v.1.15,2013-02-19 20:51:00,
2013-02-20 07:56:00,67.9,66.1,29.97,SW,218,1.0,2.0,94,0.00,,,0.00,Wunderground v.1.15,2013-02-19 20:56:00,
2013-02-20 08:01:00,68.8,66.7,29.98,SE,141,1.0,1.0,93,0.00,,,0.00,Wunderground v.1.15,2013-02-19 21:01:00,
2013-02-20 08:06:00,69.6,66.9,29.98,South,177,1.0,2.0,91,0.00,,,0.00,Wunderground v.1.15,2013-02-19 21:06:00,
2013-02-20 08:11:00,70.2,67.1,29.98,South,185,1.0,2.0,90,0.00,,,0.00,Wunderground v.1.15,2013-02-19 21:11:00,
2013-02-20 08:16:00,71.1,67.7,29.98,South,184,1.0,2.0,89,0.00,,,0.00,Wunderground v.1.15,2013-02-19 21:16:00,
2013-02-20 08:21:00,72.4,68.0,29.99,South,171,1.0,1.0,86,0.00,,,0.00,Wunderground v.1.15,2013-02-19 21:21:00,
2013-02-20 08:26:00,73.0,68.2,29.99,South,186,0.0,2.0,85,0.00,,,0.00,Wunderground v.1.15,2013-02-19 21:26:00,
2013-02-20 08:31:00,73.8,69.0,29.99,SSE,150,0.0,1.0,85,0.00,,,0.00,Wunderground v.1.15,2013-02-19 21:31:00,
2013-02-20 08:36:00,74.8,68.9,29.99,SSE,166,2.0,3.0,82,0.00,,,0.00,Wunderground v.1.15,2013-02-19 21:36:00,
2013-02-20 08:41:00,75.2,69.0,29.99,SSW,210,2.0,2.0,81,0.00,,,0.00,Wunderground v.1.15,2013-02-19 21:41:00,
2013-02-20 08:46:00,75.5,69.3,29.99,ESE,106,1.0,4.0,81,0.00,,,0.00,Wunderground v.1.15,2013-02-19 21:46:00,
2013-02-20 08:51:00,75.6,68.6,29.99,East,84,2.0,3.0,79,0.00,,,0.00,Wunderground v.1.15,2013-02-19 21:51:00,
2013-02-20 08:56:00,75.6,69.0,29.99,South,171,1.0,4.0,80,0.00,,,0.00,Wunderground v.1.15,2013-02-19 21:56:00,
2013-02-20 09:01:00,76.3,69.3,29.99,SE,133,1.0,2.0,79,0.00,,,0.00,Wunderground v.1.15,2013-02-19 22:01:00,
2013-02-20 09:06:00,76.5,69.1,29.99,SSE,147,3.0,3.0,78,0.00,,,0.00,Wunderground v.1.15,2013-02-19 22:06:00,
2013-02-20 09:12:00,76.2,68.8,29.99,East,100,1.0,5.0,78,0.00,,,0.00,Wunderground v.1.15,2013-02-19 22:12:00,
2013-02-20 09:17:00,76.4,69.4,29.99,SSE,149,2.0,5.0,79,0.00,,,0.00,Wunderground v.1.15,2013-02-19 22:17:00,
2013-02-20 09:22:00,76.5,69.1,29.99,ESE,111,4.0,5.0,78,0.00,,,0.00,Wunderground v.1.15,2013-02-19 22:22:00,
2013-02-20 09:27:00,77.3,69.1,29.99,SE,137,2.0,6.0,76,0.00,,,0.00,Wunderground v.1.15,2013-02-19 22:27:00,
2013-02-20 09:32:00,78.1,68.7,29.99,ESE,117,3.0,6.0,73,0.00,,,0.00,Wunderground v.1.15,2013-02-19 22:32:00,
2013-02-20 09:37:00,78.2,69.2,30.00,South,170,4.0,8.0,74,0.00,,,0.00,Wunderground v.1.15,2013-02-19 22:37:00,
2013-02-20 09:42:00,78.6,69.2,30.00,ENE,65,3.0,7.0,73,0.00,,,0.00,Wunderground v.1.15,2013-02-19 22:42:00,
2013-02-20 09:47:00,78.5,68.7,30.00,SSE,165,2.0,8.0,72,0.00,,,0.00,Wunderground v.1.15,2013-02-19 22:47:00,
2013-02-20 09:52:00,77.9,67.7,30.00,SSW,195,6.0,8.0,71,0.00,,,0.00,Wunderground v.1.15,2013-02-19 22:52:00,
2013-02-20 09:57:00,78.5,69.1,30.00,SSE,167,5.0,8.0,73,0.00,,,0.00,Wunderground v.1.15,2013-02-19 22:57:00,
2013-02-20 10:02:00,78.0,68.6,30.00,SE,140,3.0,6.0,73,0.00,,,0.00,Wunderground v.1.15,2013-02-19 23:02:00,
2013-02-20 10:07:00,78.8,69.0,30.00,East,89,5.0,6.0,72,0.00,,,0.00,Wunderground v.1.15,2013-02-19 23:07:00,
2013-02-20 10:12:00,78.9,68.7,30.00,East,82,2.0,4.0,71,0.00,,,0.00,Wunderground v.1.15,2013-02-19 23:12:00,
2013-02-20 10:17:00,79.6,68.5,30.00,ESE,115,5.0,7.0,69,0.00,,,0.00,Wunderground v.1.15,2013-02-19 23:17:00,
2013-02-20 10:22:00,78.9,67.9,30.00,NE,53,6.0,7.0,69,0.00,,,0.00,Wunderground v.1.15,2013-02-19 23:22:00,
2013-02-20 10:27:00,78.3,68.9,30.01,NE,52,2.0,7.0,73,0.00,,,0.00,Wunderground v.1.15,2013-02-19 23:27:00,
2013-02-20 10:32:00,77.3,68.4,30.01,South,190,3.0,6.0,74,0.00,,,0.00,Wunderground v.1.15,2013-02-19 23:32:00,
2013-02-20 10:37:00,77.4,69.2,30.00,South,172,1.0,6.0,76,0.00,,,0.00,Wunderground v.1.15,2013-02-19 23:37:00,
2013-02-20 10:42:00,78.2,69.2,30.00,SW,236,6.0,7.0,74,0.00,,,0.00,Wunderground v.1.15,2013-02-19 23:42:00,
2013-02-20 10:48:00,78.6,69.6,30.01,SE,127,2.0,8.0,74,0.00,,,0.00,Wunderground v.1.15,2013-02-19 23:48:00,
2013-02-20 10:53:00,79.4,68.8,30.01,SE,124,3.0,5.0,70,0.00,,,0.00,Wunderground v.1.15,2013-02-19 23:53:00,
2013-02-20 10:58:00,79.7,69.5,30.01,ENE,63,3.0,6.0,71,0.00,,,0.00,Wunderground v.1.15,2013-02-19 23:58:00,
2013-02-20 11:02:00,79.4,67.5,30.01,NNE,32,3.0,7.0,67,0.00,,,0.00,Wunderground v.1.15,2013-02-20 00:02:00,
2013-02-20 11:07:00,79.5,67.1,30.01,SSW,196,3.0,7.0,66,0.00,,,0.00,Wunderground v.1.15,2013-02-20 00:07:00,
2013-02-20 11:12:00,79.3,67.0,30.01,South,169,4.0,8.0,66,0.00,,,0.00,Wunderground v.1.15,2013-02-20 00:12:00,
2013-02-20 11:18:00,79.7,67.8,30.01,ENE,75,3.0,9.0,67,0.00,,,0.00,Wunderground v.1.15,2013-02-20 00:18:00,
2013-02-20 11:23:00,79.8,67.0,30.01,ENE,76,7.0,12.0,65,0.00,,,0.00,Wunderground v.1.15,2013-02-20 00:23:00,
2013-02-20 11:28:00,80.3,67.9,30.01,South,181,5.0,12.0,66,0.00,,,0.00,Wunderground v.1.15,2013-02-20 00:28:00,
2013-02-20 11:33:00,81.2,69.2,30.01,NE,39,4.0,6.0,67,0.00,,,0.00,Wunderground v.1.15,2013-02-20 00:33:00,
2013-02-20 11:38:00,81.7,66.5,30.01,SSE,162,4.0,9.0,60,0.00,,,0.00,Wunderground v.1.15,2013-02-20 00:38:00,
2013-02-20 11:44:00,82.2,67.4,30.01,SE,141,7.0,7.0,61,0.00,,,0.00,Wunderground v.1.15,2013-02-20 00:44:00,
2013-02-20 11:49:00,82.0,64.2,30.01,ESE,107,3.0,12.0,55,0.00,,,0.00,Wunderground v.1.15,2013-02-20 00:49:00,
2013-02-20 11:53:00,82.1,64.8,30.01,ESE,117,3.0,8.0,56,0.00,,,0.00,Wunderground v.1.15,2013-02-20 00:53:00,
2013-02-20 11:58:00,82.1,66.4,30.01,SE,134,2.0,9.0,59,0.00,,,0.00,Wunderground v.1.15,2013-02-20 00:58:00,
2013-02-20 12:03:00,82.3,65.0,30.01,ESE,110,9.0,10.0,56,0.00,,,0.00,Wunderground v.1.15,2013-02-20 01:03:00,
2013-02-20 12:08:00,82.1,65.9,30.01,South,176,7.0,10.0,58,0.00,,,0.00,Wunderground v.1.15,2013-02-20 01:08:00,
2013-02-20 12:13:00,81.9,65.2,30.01,ESE,103,5.0,9.0,57,0.00,,,0.00,Wunderground v.1.15,2013-02-20 01:13:00,
2013-02-20 12:18:00,81.7,64.0,30.01,ENE,72,3.0,9.0,55,0.00,,,0.00,Wunderground v.1.15,2013-02-20 01:18:00,
2013-02-20 12:23:00,82.0,65.3,30.01,NE,34,2.0,6.0,57,0.00,,,0.00,Wunderground v.1.15,2013-02-20 01:23:00,
2013-02-20 12:28:00,82.1,63.8,30.01,East,89,5.0,9.0,54,0.00,,,0.00,Wunderground v.1.15,2013-02-20 01:28:00,
2013-02-20 12:33:00,82.4,64.1,30.00,SE,124,2.0,7.0,54,0.00,,,0.00,Wunderground v.1.15,2013-02-20 01:33:00,
2013-02-20 12:38:00,82.8,64.5,30.00,NE,56,2.0,9.0,54,0.00,,,0.00,Wunderground v.1.15,2013-02-20 01:38:00,
2013-02-20 12:43:00,82.3,62.9,30.00,SE,140,3.0,11.0,52,0.00,,,0.00,Wunderground v.1.15,2013-02-20 01:43:00,
2013-02-20 12:48:00,82.4,65.6,30.00,East,87,3.0,11.0,57,0.00,,,0.00,Wunderground v.1.15,2013-02-20 01:48:00,
2013-02-20 12:53:00,82.9,65.1,30.00,SE,126,3.0,9.0,55,0.00,,,0.00,Wunderground v.1.15,2013-02-20 01:53:00,
2013-02-20 12:58:00,83.0,64.6,30.00,ENE,75,7.0,9.0,54,0.00,,,0.00,Wunderground v.1.15,2013-02-20 01:58:00,
2013-02-20 13:03:00,83.0,66.2,30.00,SSE,154,2.0,9.0,57,0.00,,,0.00,Wunderground v.1.15,2013-02-20 02:03:00,
2013-02-20 13:08:00,83.0,65.7,30.00,SSE,163,4.0,10.0,56,0.00,,,0.00,Wunderground v.1.15,2013-02-20 02:08:00,
2013-02-20 13:13:00,83.1,65.8,30.00,ESE,120,2.0,8.0,56,0.00,,,0.00,Wunderground v.1.15,2013-02-20 02:13:00,
2013-02-20 13:18:00,82.8,65.0,30.00,NNE,23,3.0,9.0,55,0.00,,,0.00,Wunderground v.1.15,2013-02-20 02:18:00,
2013-02-20 13:23:00,82.7,64.9,30.00,NE,34,6.0,9.0,55,0.00,,,0.00,Wunderground v.1.15,2013-02-20 02:23:00,
2013-02-20 13:28:00,82.8,65.5,30.00,ENE,65,3.0,9.0,56,0.00,,,0.00,Wunderground v.1.15,2013-02-20 02:28:00,
2013-02-20 13:33:00,83.3,66.0,29.99,ESE,115,3.0,9.0,56,0.00,,,0.00,Wunderground v.1.15,2013-02-20 02:33:00,
2013-02-20 13:38:00,83.0,65.7,30.00,ESE,105,3.0,9.0,56,0.00,,,0.00,Wunderground v.1.15,2013-02-20 02:38:00,
2013-02-20 13:44:00,82.7,64.9,29.99,East,96,2.0,9.0,55,0.00,,,0.00,Wunderground v.1.15,2013-02-20 02:44:00,
2013-02-20 13:49:00,82.8,65.0,29.99,ENE,70,2.0,12.0,55,0.00,,,0.00,Wunderground v.1.15,2013-02-20 02:49:00,
2013-02-20 13:54:00,83.0,65.2,29.99,NNE,12,5.0,8.0,55,0.00,,,0.00,Wunderground v.1.15,2013-02-20 02:54:00,
2013-02-20 13:59:00,82.8,65.5,29.99,SSE,167,5.0,8.0,56,0.00,,,0.00,Wunderground v.1.15,2013-02-20 02:59:00,
2013-02-20 14:04:00,82.4,65.6,29.99,NNE,17,3.0,7.0,57,0.00,,,0.00,Wunderground v.1.15,2013-02-20 03:04:00,
2013-02-20 14:09:00,82.6,66.3,29.99,South,181,7.0,9.0,58,0.00,,,0.00,Wunderground v.1.15,2013-02-20 03:09:00,
2013-02-20 14:14:00,81.4,65.7,29.99,South,172,3.0,7.0,59,0.00,,,0.00,Wunderground v.1.15,2013-02-20 03:14:00,
2013-02-20 14:19:00,80.9,67.1,29.99,West,267,2.0,9.0,63,0.00,,,0.00,Wunderground v.1.15,2013-02-20 03:19:00,
2013-02-20 14:24:00,81.1,66.4,29.99,SSE,167,3.0,7.0,61,0.00,,,0.00,Wunderground v.1.15,2013-02-20 03:24:00,
2013-02-20 14:29:00,80.3,66.6,29.99,SSE,148,2.0,7.0,63,0.00,,,0.00,Wunderground v.1.15,2013-02-20 03:29:00,
2013-02-20 14:34:00,79.9,66.2,29.99,SSW,195,5.0,7.0,63,0.00,,,0.00,Wunderground v.1.15,2013-02-20 03:34:00,
2013-02-20 14:39:00,80.7,67.4,29.98,NNE,17,2.0,7.0,64,0.00,,,0.00,Wunderground v.1.15,2013-02-20 03:39:00,
2013-02-20 14:44:00,81.0,65.3,29.99,NNE,33,5.0,8.0,59,0.00,,,0.00,Wunderground v.1.15,2013-02-20 03:44:00,
2013-02-20 14:49:00,80.8,66.6,29.98,ESE,108,4.0,12.0,62,0.00,,,0.00,Wunderground v.1.15,2013-02-20 03:49:00,
2013-02-20 14:54:00,81.5,65.8,29.98,SSE,165,3.0,10.0,59,0.00,,,0.00,Wunderground v.1.15,2013-02-20 03:54:00,
2013-02-20 14:59:00,81.7,66.0,29.98,SW,227,4.0,12.0,59,0.00,,,0.00,Wunderground v.1.15,2013-02-20 03:59:00,
2013-02-20 15:04:00,81.9,66.6,29.98,SSE,162,3.0,7.0,60,0.00,,,0.00,Wunderground v.1.15,2013-02-20 04:04:00,
2013-02-20 15:09:00,82.3,66.5,29.98,South,190,6.0,9.0,59,0.00,,,0.00,Wunderground v.1.15,2013-02-20 04:09:00,
2013-02-20 15:14:00,81.9,66.6,29.99,ENE,72,2.0,8.0,60,0.00,,,0.00,Wunderground v.1.15,2013-02-20 04:14:00,
2013-02-20 15:19:00,82.0,66.3,29.98,ESE,115,3.0,8.0,59,0.00,,,0.00,Wunderground v.1.15,2013-02-20 04:19:00,
2013-02-20 15:24:00,82.1,66.8,29.98,ESE,122,3.0,10.0,60,0.00,,,0.00,Wunderground v.1.15,2013-02-20 04:24:00,
2013-02-20 15:29:00,82.2,66.4,29.99,ENE,68,4.0,10.0,59,0.00,,,0.00,Wunderground v.1.15,2013-02-20 04:29:00,
2013-02-20 15:34:00,80.7,66.5,29.99,SSE,162,6.0,8.0,62,0.00,,,0.00,Wunderground v.1.15,2013-02-20 04:34:00,
2013-02-20 15:39:00,79.6,66.8,29.99,South,173,4.0,9.0,65,0.00,,,0.00,Wunderground v.1.15,2013-02-20 04:39:00,
2013-02-20 15:44:00,78.4,67.4,29.98,SSE,162,1.0,7.0,69,0.00,,,0.00,Wunderground v.1.15,2013-02-20 04:44:00,
2013-02-20 15:49:00,78.5,67.9,29.98,SSE,147,1.0,7.0,70,0.00,,,0.00,Wunderground v.1.15,2013-02-20 04:49:00,
2013-02-20 15:54:00,79.2,66.4,29.98,ESE,107,6.0,9.0,65,0.00,,,0.00,Wunderground v.1.15,2013-02-20 04:54:00,
2013-02-20 15:59:00,78.6,66.7,29.98,SSE,162,4.0,9.0,67,0.00,,,0.00,Wunderground v.1.15,2013-02-20 04:59:00,
2013-02-20 16:00:00,78.6,66.7,29.98,South,175,3.0,4.0,67,0.00,,,0.00,Wunderground v.1.15,2013-02-20 05:00:00,
2013-02-20 16:01:00,78.7,67.2,29.98,SSW,197,2.0,4.0,68,0.00,,,0.00,Wunderground v.1.15,2013-02-20 05:01:00,
2013-02-20 16:06:00,79.3,67.4,29.98,SE,143,1.0,9.0,67,0.00,,,0.00,Wunderground v.1.15,2013-02-20 05:06:00,
2013-02-20 16:11:00,79.9,67.5,29.98,WSW,248,6.0,6.0,66,0.00,,,0.00,Wunderground v.1.15,2013-02-20 05:11:00,
2013-02-20 16:16:00,79.9,66.6,29.98,SE,141,2.0,8.0,64,0.00,,,0.00,Wunderground v.1.15,2013-02-20 05:16:00,
2013-02-20 16:21:00,80.1,67.7,29.97,ENE,66,2.0,6.0,66,0.00,,,0.00,Wunderground v.1.15,2013-02-20 05:21:00,
2013-02-20 16:26:00,80.3,66.6,29.98,South,173,6.0,11.0,63,0.00,,,0.00,Wunderground v.1.15,2013-02-20 05:26:00,
2013-02-20 16:31:00,79.7,67.3,29.98,SSE,166,3.0,5.0,66,0.00,,,0.00,Wunderground v.1.15,2013-02-20 05:31:00,
2013-02-20 16:36:00,79.0,67.1,29.98,NE,52,5.0,8.0,67,0.00,,,0.00,Wunderground v.1.15,2013-02-20 05:36:00,
2013-02-20 16:41:00,79.4,67.0,29.98,ESE,108,5.0,6.0,66,0.00,,,0.00,Wunderground v.1.15,2013-02-20 05:41:00,
2013-02-20 16:46:00,79.6,67.7,29.98,ESE,106,2.0,7.0,67,0.00,,,0.00,Wunderground v.1.15,2013-02-20 05:46:00,
2013-02-20 16:51:00,80.7,68.3,29.98,East,91,2.0,5.0,66,0.00,,,0.00,Wunderground v.1.15,2013-02-20 05:51:00,
2013-02-20 16:56:00,79.9,67.1,29.98,NE,39,2.0,10.0,65,0.00,,,0.00,Wunderground v.1.15,2013-02-20 05:56:00,
2013-02-20 17:01:00,79.1,66.8,29.98,East,89,4.0,5.0,66,0.00,,,0.00,Wunderground v.1.15,2013-02-20 06:01:00,
2013-02-20 17:06:00,78.9,66.1,29.98,SE,124,4.0,12.0,65,0.00,,,0.00,Wunderground v.1.15,2013-02-20 06:06:00,
2013-02-20 17:11:00,79.2,66.0,29.98,SSE,164,5.0,7.0,64,0.00,,,0.00,Wunderground v.1.15,2013-02-20 06:11:00,
2013-02-20 17:16:00,79.6,65.9,29.98,ESE,120,6.0,11.0,63,0.00,,,0.00,Wunderground v.1.15,2013-02-20 06:16:00,
2013-02-20 17:21:00,79.4,64.8,29.98,East,85,6.0,10.0,61,0.00,,,0.00,Wunderground v.1.15,2013-02-20 06:21:00,
2013-02-20 17:26:00,79.3,64.7,29.98,NE,42,2.0,11.0,61,0.00,,,0.00,Wunderground v.1.15,2013-02-20 06:26:00,
2013-02-20 17:31:00,79.1,65.0,29.99,SSE,159,5.0,8.0,62,0.00,,,0.00,Wunderground v.1.15,2013-02-20 06:31:00,
2013-02-20 17:36:00,78.3,64.2,29.99,SSW,199,3.0,8.0,62,0.00,,,0.00,Wunderground v.1.15,2013-02-20 06:36:00,
2013-02-20 17:41:00,77.8,64.6,29.99,SE,138,1.0,9.0,64,0.00,,,0.00,Wunderground v.1.15,2013-02-20 06:41:00,
2013-02-20 17:47:00,77.5,64.8,29.99,SE,137,3.0,9.0,65,0.00,,,0.00,Wunderground v.1.15,2013-02-20 06:47:00,
2013-02-20 17:52:00,77.5,65.2,29.99,ESE,107,2.0,4.0,66,0.00,,,0.00,Wunderground v.1.15,2013-02-20 06:52:00,
2013-02-20 17:57:00,78.1,64.9,29.99,NNE,23,3.0,9.0,64,0.00,,,0.00,Wunderground v.1.15,2013-02-20 06:57:00,
2013-02-20 18:02:00,78.3,65.1,29.99,ENE,62,3.0,6.0,64,0.00,,,0.00,Wunderground v.1.15,2013-02-20 07:02:00,
2013-02-20 18:07:00,78.1,65.8,29.99,SSW,210,3.0,6.0,66,0.00,,,0.00,Wunderground v.1.15,2013-02-20 07:07:00,
2013-02-20 18:12:00,78.1,65.8,29.99,South,172,2.0,6.0,66,0.00,,,0.00,Wunderground v.1.15,2013-02-20 07:12:00,
2013-02-20 18:17:00,77.5,65.2,30.00,NNE,12,4.0,8.0,66,0.00,,,0.00,Wunderground v.1.15,2013-02-20 07:17:00,
2013-02-20 18:22:00,76.3,65.4,30.00,South,184,1.0,5.0,69,0.00,,,0.00,Wunderground v.1.15,2013-02-20 07:22:00,
2013-02-20 18:27:00,75.4,65.3,30.00,SSE,148,2.0,5.0,71,0.00,,,0.00,Wunderground v.1.15,2013-02-20 07:27:00,
2013-02-20 18:32:00,74.8,65.6,30.00,South,176,2.0,4.0,73,0.00,,,0.00,Wunderground v.1.15,2013-02-20 07:32:00,
2013-02-20 18:37:00,74.4,66.0,30.00,SSE,150,1.0,4.0,75,0.00,,,0.00,Wunderground v.1.15,2013-02-20 07:37:00,
2013-02-20 18:42:00,74.2,65.8,30.00,SSE,159,2.0,4.0,75,0.00,,,0.00,Wunderground v.1.15,2013-02-20 07:42:00,
2013-02-20 18:47:00,74.2,66.1,30.00,SSE,153,3.0,4.0,76,0.00,,,0.00,Wunderground v.1.15,2013-02-20 07:47:00,
2013-02-20 18:52:00,74.2,66.1,30.00,SSE,157,1.0,3.0,76,0.00,,,0.00,Wunderground v.1.15,2013-02-20 07:52:00,
2013-02-20 18:57:00,74.1,66.4,30.00,NW,315,0.0,3.0,77,0.00,,,0.00,Wunderground v.1.15,2013-02-20 07:57:00,
2013-02-20 19:05:00,74.0,66.3,30.01,SE,131,1.0,4.0,77,0.00,,,0.00,Wunderground v.1.15,2013-02-20 08:05:00,
2013-02-20 19:10:00,74.1,66.4,30.00,SSE,157,1.0,3.0,77,0.00,,,-99.99,WeatherLink 5.9.3,2013-02-20 08:10:00,
2013-02-20 19:15:00,74.2,66.5,30.01,SSE,147,1.0,5.0,77,0.00,,,0.00,Wunderground v.1.15,2013-02-20 08:15:00,
2013-02-20 19:20:00,74.1,66.4,30.01,SE,135,1.0,5.0,77,0.00,,,-99.99,WeatherLink 5.9.3,2013-02-20 08:20:00,
2013-02-20 19:25:00,73.3,66.4,30.02,NNE,27,2.0,9.0,79,0.68,,,0.03,Wunderground v.1.15,2013-02-20 08:25:00,
2013-02-20 19:30:00,71.5,66.4,30.03,NE,35,0.0,3.0,84,0.26,,,0.06,Wunderground v.1.15,2013-02-20 08:30:00,
2013-02-20 19:35:00,70.5,66.1,30.03,SSE,164,1.0,3.0,86,0.49,,,0.08,Wunderground v.1.15,2013-02-20 08:35:00,
2013-02-20 19:40:00,69.7,65.7,30.02,SSE,147,1.0,2.0,87,0.17,,,0.09,Wunderground v.1.15,2013-02-20 08:40:00,
2013-02-20 19:45:00,69.4,65.7,30.02,ESE,108,0.0,2.0,88,0.07,,,0.09,Wunderground v.1.15,2013-02-20 08:45:00,
2013-02-20 19:50:00,69.3,65.9,30.02,ENE,72,0.0,1.0,89,0.05,,,0.09,Wunderground v.1.15,2013-02-20 08:50:00,
2013-02-20 19:55:00,69.4,66.3,30.03,ENE,63,2.0,2.0,90,0.00,,,0.09,Wunderground v.1.15,2013-02-20 08:55:00,
2013-02-20 20:01:00,69.4,65.7,30.02,East,90,0.0,1.0,88,0.09,,,-99.99,WeatherLink 5.9.3,2013-02-20 09:01:00,
2013-02-20 20:06:00,68.8,66.4,30.04,SSE,162,1.0,4.0,92,0.13,,,0.20,Wunderground v.1.15,2013-02-20 09:06:00,
2013-02-20 20:11:00,68.8,66.4,30.04,SSW,207,3.0,4.0,92,0.11,,,0.20,Wunderground v.1.15,2013-02-20 09:11:00,
2013-02-20 20:16:00,68.5,66.1,30.03,SE,136,0.0,4.0,92,0.21,,,0.22,Wunderground v.1.15,2013-02-20 09:16:00,
2013-02-20 20:21:00,68.8,66.4,30.04,SSE,157,1.0,4.0,92,0.20,,,-99.99,WeatherLink 5.9.3,2013-02-20 09:21:00,
2013-02-20 20:26:00,68.4,66.0,30.03,SSE,167,1.0,2.0,92,0.05,,,0.22,Wunderground v.1.15,2013-02-20 09:26:00,
2013-02-20 20:31:00,68.3,66.2,30.04,SSE,150,0.0,1.0,93,0.00,,,0.22,Wunderground v.1.15,2013-02-20 09:31:00,
2013-02-20 20:36:00,68.2,66.1,30.04,SSW,200,0.0,1.0,93,0.00,,,0.22,Wunderground v.1.15,2013-02-20 09:36:00,
2013-02-20 20:41:00,68.1,66.0,30.04,South,180,1.0,1.0,93,0.00,,,0.22,Wunderground v.1.15,2013-02-20 09:41:00,
2013-02-20 20:46:00,68.1,66.0,30.04,South,180,0.0,1.0,93,0.00,,,0.22,Wunderground v.1.15,2013-02-20 09:46:00,
2013-02-20 20:51:00,68.1,66.0,30.04,South,180,0.0,0.0,93,0.00,,,0.22,Wunderground v.1.15,2013-02-20 09:51:00,
2013-02-20 20:56:00,68.0,65.9,30.04,South,180,0.0,1.0,93,0.00,,,0.22,Wunderground v.1.15,2013-02-20 09:56:00,
2013-02-20 21:01:00,67.9,65.8,30.05,South,191,0.0,0.0,93,0.00,,,0.22,Wunderground v.1.15,2013-02-20 10:01:00,
2013-02-20 22:05:00,68.0,65.9,30.05,North,-999,0.0,0.0,93,0.13,,,-99.99,WeatherLink 5.9.3,2013-02-20 11:05:00,
2013-02-20 22:10:00,67.9,66.1,30.05,South,180,0.0,1.0,94,0.13,,,-99.99,WeatherLink 5.9.3,2013-02-20 11:10:00,
2013-02-20 22:15:00,67.9,66.1,30.05,North,-999,0.0,0.0,94,0.13,,,-99.99,WeatherLink 5.9.3,2013-02-20 11:15:00,
2013-02-20 22:20:00,67.8,66.0,30.04,North,-999,0.0,0.0,94,0.13,,,-99.99,WeatherLink 5.9.3,2013-02-20 11:20:00,
2013-02-20 22:25:00,67.8,66.0,30.04,North,-999,0.0,0.0,94,0.13,,,-99.99,WeatherLink 5.9.3,2013-02-20 11:25:00,
2013-02-20 22:30:00,67.7,65.9,30.05,North,-999,0.0,0.0,94,0.13,,,-99.99,WeatherLink 5.9.3,2013-02-20 11:30:00,
2013-02-20 22:35:00,67.6,65.8,30.05,South,180,0.0,1.0,94,0.13,,,-99.99,WeatherLink 5.9.3,2013-02-20 11:35:00,
2013-02-20 22:40:00,67.6,65.8,30.05,North,-999,0.0,0.0,94,0.13,,,-99.99,WeatherLink 5.9.3,2013-02-20 11:40:00,
2013-02-20 22:45:00,67.5,65.7,30.05,North,-999,0.0,0.0,94,0.13,,,-99.99,WeatherLink 5.9.3,2013-02-20 11:45:00,
2013-02-20 22:50:00,67.5,65.7,30.05,North,-999,0.0,0.0,94,0.13,,,-99.99,WeatherLink 5.9.3,2013-02-20 11:50:00,
2013-02-20 22:55:00,67.4,65.6,30.05,North,-999,0.0,0.0,94,0.13,,,-99.99,WeatherLink 5.9.3,2013-02-20 11:55:00,
2013-02-20 23:00:00,67.4,65.6,30.05,North,-999,0.0,0.0,94,0.13,,,-99.99,WeatherLink 5.9.3,2013-02-20 12:00:00,
2013-02-20 23:05:00,67.3,65.5,30.05,North,-999,0.0,0.0,94,0.13,,,-99.99,WeatherLink 5.9.3,2013-02-20 12:05:00,
2013-02-20 23:10:00,67.2,65.4,30.05,North,-999,0.0,0.0,94,0.13,,,-99.99,WeatherLink 5.9.3,2013-02-20 12:10:00,
2013-02-20 23:15:00,67.1,65.6,30.05,West,270,0.0,1.0,95,0.13,,,-99.99,WeatherLink 5.9.3,2013-02-20 12:15:00,
2013-02-20 23:20:00,67.1,65.6,30.04,North,-999,0.0,0.0,95,0.13,,,-99.99,WeatherLink 5.9.3,2013-02-20 12:20:00,
2013-02-20 23:25:00,67.1,65.6,30.04,North,-999,0.0,0.0,95,0.13,,,-99.99,WeatherLink 5.9.3,2013-02-20 12:25:00,
2013-02-20 23:30:00,67.2,65.7,30.04,West,270,0.0,1.0,95,0.13,,,-99.99,WeatherLink 5.9.3,2013-02-20 12:30:00,
2013-02-20 23:32:00,66.2,64.7,30.03,West,262,0.0,0.0,95,0.00,,,0.22,Wunderground v.1.15,2013-02-20 12:32:00,
2013-02-20 23:37:00,66.1,64.6,30.03,West,262,0.0,0.0,95,0.00,,,0.22,Wunderground v.1.15,2013-02-20 12:37:00,
2013-02-20 23:42:00,66.1,64.6,30.03,SSW,213,0.0,1.0,95,0.00,,,0.22,Wunderground v.1.15,2013-02-20 12:42:00,
2013-02-20 23:47:00,66.0,64.5,30.03,SSW,213,0.0,1.0,95,0.00,,,0.22,Wunderground v.1.15,2013-02-20 12:47:00,
2013-02-20 23:52:00,66.0,64.5,30.03,WSW,250,0.0,0.0,95,0.00,,,0.22,Wunderground v.1.15,2013-02-20 12:52:00,
2013-02-20 23:57:00,66.0,64.8,30.03,SW,216,0.0,1.0,96,0.00,,,0.22,Wunderground v.1.15,2013-02-20 12:57:00,